Denver, Colorado
Traffic Map
Current Weather Conditions
Denver, Colorado
Clear
Clear
52°
Feels Like: 52°
Wind Chill: 52° Ceiling: Unl
Heat Index: 52° Visibility: 10mi
Dew Point: 24° Wind: 12mph
Humidity: 34% Direction: 180° (S)
Pressure: 29.98in Gusts: 0mph
Raw Report DataKBKF 260658Z 18010KT 10SM CLR 11/M04 A2998 RMK AO2A SLP087 T01131043 402580080
Traffic Incident Summary
Active as of:
Severity:
Category:
InformationThere was an issue retrieving the traffic information for this location. Please try a different location or try again shortly.
Advertisements
Track Severe Weather on mobile